Time;durP1;ratioP1;P1;durP2;ratioP2;P2;SDS_P1;SDS_P2;PMS_P1;PMS_P2;Temp;Humidity;BMP_temperature;BMP_pressure;BME280_temperature;BME280_humidity;BME280_pressure;Samples;Min_cycle;Max_cycle;Signal;HPM_P1;HPM_P2
2020/12/04 00:01:05;;;;;;;5.80;4.00;;;7.80;79.70;;;;;;4996365;28;20044;-75
2020/12/04 00:03:30;;;;;;;5.15;3.33;;;7.80;79.70;;;;;;5014462;28;20109;-75
2020/12/04 00:05:56;;;;;;;4.47;3.20;;;7.80;79.70;;;;;;5003028;28;20026;-76
2020/12/04 00:08:22;;;;;;;4.82;3.53;;;7.80;79.70;;;;;;5004375;28;20026;-76
2020/12/04 00:10:48;;;;;;;4.47;3.15;;;7.70;79.70;;;;;;5014059;28;20485;-75
2020/12/04 00:13:14;;;;;;;4.88;3.40;;;7.80;79.70;;;;;;5013999;28;20030;-75
2020/12/04 00:15:39;;;;;;;5.40;3.55;;;7.80;79.70;;;;;;5013067;28;20041;-77
2020/12/04 00:18:05;;;;;;;5.53;3.80;;;7.80;79.70;;;;;;5021024;28;20493;-75
2020/12/04 00:20:31;;;;;;;4.75;3.30;;;7.80;79.70;;;;;;5014397;28;20045;-75
2020/12/04 00:22:57;;;;;;;5.40;3.63;;;7.70;79.70;;;;;;5016989;28;20033;-75
2020/12/04 00:25:23;;;;;;;5.57;3.67;;;7.70;79.70;;;;;;5000247;28;20065;-74
2020/12/04 00:27:48;;;;;;;4.60;3.35;;;7.70;79.70;;;;;;4979984;28;20052;-75
2020/12/04 00:30:14;;;;;;;4.82;3.47;;;7.70;79.70;;;;;;5012269;28;20144;-75
2020/12/04 00:32:40;;;;;;;5.72;3.65;;;7.70;79.70;;;;;;5011543;28;20076;-75
2020/12/04 00:35:06;;;;;;;5.90;3.78;;;7.70;79.70;;;;;;5011721;28;20393;-75
2020/12/04 00:37:32;;;;;;;4.95;3.28;;;7.70;79.70;;;;;;5027701;28;20116;-75
2020/12/04 00:39:58;;;;;;;4.70;3.17;;;7.70;79.60;;;;;;5003852;28;20028;-75
2020/12/04 00:42:23;;;;;;;4.93;3.28;;;7.70;79.70;;;;;;5019647;28;20033;-75
2020/12/04 00:44:49;;;;;;;4.53;3.30;;;7.70;79.60;;;;;;4964463;28;20077;-75
2020/12/04 00:47:15;;;;;;;4.47;3.22;;;7.70;79.60;;;;;;5012129;28;20516;-75
2020/12/04 00:49:41;;;;;;;5.03;3.38;;;7.70;79.70;;;;;;5003246;28;20030;-75
2020/12/04 00:52:07;;;;;;;5.30;3.63;;;7.70;79.70;;;;;;5019996;28;20386;-75
2020/12/04 00:54:33;;;;;;;4.95;3.53;;;7.70;79.70;;;;;;5004737;28;20035;-75
2020/12/04 00:57:00;;;;;;;4.88;3.20;;;7.70;79.70;;;;;;5007615;28;20056;-76
2020/12/04 00:59:39;;;;;;;4.97;3.28;;;7.70;79.70;;;;;;5003587;28;20030;-76
2020/12/04 01:02:04;;;;;;;5.28;3.40;;;7.70;79.70;;;;;;4994888;28;20037;-75
2020/12/04 01:04:30;;;;;;;5.00;3.40;;;7.70;79.70;;;;;;5010736;28;20030;-75
2020/12/04 01:06:56;;;;;;;4.72;3.00;;;7.70;79.70;;;;;;5011436;28;20041;-75
2020/12/04 01:09:22;;;;;;;4.97;3.47;;;7.70;79.70;;;;;;5011312;28;20105;-75
2020/12/04 01:11:47;;;;;;;5.53;3.40;;;7.70;79.70;;;;;;5012256;28;20030;-75
2020/12/04 01:14:13;;;;;;;4.45;2.95;;;7.70;79.70;;;;;;5010661;28;20025;-75
2020/12/04 01:16:39;;;;;;;5.53;3.60;;;7.70;79.70;;;;;;4978596;28;20057;-76
2020/12/04 01:19:05;;;;;;;5.22;3.45;;;7.70;79.70;;;;;;5011075;28;20036;-76
2020/12/04 01:21:33;;;;;;;4.75;3.20;;;7.70;79.70;;;;;;4979085;28;20088;-75
2020/12/04 01:23:59;;;;;;;4.60;3.05;;;7.70;79.70;;;;;;5011711;28;20125;-76
2020/12/04 01:26:25;;;;;;;5.13;3.40;;;7.70;79.70;;;;;;5036733;28;20053;-75
2020/12/04 01:28:51;;;;;;;4.72;3.10;;;7.70;79.70;;;;;;4995553;28;20033;-76
2020/12/04 01:31:16;;;;;;;5.32;3.47;;;7.70;79.70;;;;;;4995067;28;20469;-76
2020/12/04 01:33:42;;;;;;;4.78;3.30;;;7.70;79.70;;;;;;5003563;28;20167;-75
2020/12/04 01:36:08;;;;;;;5.05;3.58;;;7.60;79.60;;;;;;5011791;28;20409;-76
2020/12/04 01:38:34;;;;;;;5.25;3.28;;;7.70;79.70;;;;;;5011732;28;20014;-76
2020/12/04 01:41:00;;;;;;;4.78;3.22;;;7.70;79.60;;;;;;5003831;28;20036;-80
2020/12/04 01:43:27;;;;;;;5.70;3.72;;;7.70;79.70;;;;;;4995263;28;20373;-75
2020/12/04 01:45:53;;;;;;;5.75;3.25;;;7.70;79.60;;;;;;4995346;28;20125;-76
2020/12/04 01:48:19;;;;;;;5.18;3.67;;;7.70;79.70;;;;;;5016908;28;20459;-74
2020/12/04 01:50:45;;;;;;;5.05;3.33;;;7.70;79.70;;;;;;5014628;28;20029;-75
2020/12/04 01:53:11;;;;;;;5.32;3.50;;;7.70;79.70;;;;;;5012240;28;20088;-75
2020/12/04 01:55:38;;;;;;;4.72;3.28;;;7.70;79.60;;;;;;5013278;28;20056;-76
2020/12/04 01:58:04;;;;;;;4.57;3.35;;;7.70;79.70;;;;;;5010655;28;20034;-76
2020/12/04 02:00:30;;;;;;;5.45;3.80;;;7.70;79.70;;;;;;4994101;28;20121;-78
2020/12/04 02:02:56;;;;;;;4.97;3.63;;;7.60;79.60;;;;;;4993887;28;20529;-75
2020/12/04 02:05:22;;;;;;;5.07;3.17;;;7.60;79.60;;;;;;4977771;28;20038;-76
2020/12/04 02:08:15;;;;;;;4.88;3.35;;;7.70;79.60;;;;;;5011627;28;20370;-76
2020/12/04 02:10:49;;;;;;;5.32;3.70;;;7.60;79.60;;;;;;4992611;28;20041;-75
2020/12/04 02:13:17;;;;;;;4.45;3.00;;;7.60;79.60;;;;;;5010105;28;20034;-75
2020/12/04 02:15:44;;;;;;;5.05;2.70;;;7.60;79.60;;;;;;5010661;28;20050;-75
2020/12/04 02:18:11;;;;;;;5.10;3.03;;;7.60;79.60;;;;;;5013450;28;20064;-75
2020/12/04 02:20:36;;;;;;;4.45;3.15;;;7.60;79.60;;;;;;4982662;28;20064;-76
2020/12/04 02:23:02;;;;;;;5.35;3.47;;;7.60;79.60;;;;;;5015052;28;20033;-76
2020/12/04 02:25:28;;;;;;;4.80;3.35;;;7.60;79.60;;;;;;4982300;28;20021;-75
2020/12/04 02:27:54;;;;;;;4.43;3.10;;;7.60;79.60;;;;;;5030455;28;20112;-76
2020/12/04 02:30:27;;;;;;;4.80;3.42;;;7.60;79.60;;;;;;5013543;28;20540;-76
2020/12/04 02:32:53;;;;;;;4.03;2.85;;;7.60;79.60;;;;;;5022919;28;20044;-75
2020/12/04 02:35:19;;;;;;;4.93;3.10;;;7.60;79.60;;;;;;5022539;28;20026;-75
2020/12/04 02:37:45;;;;;;;3.60;2.72;;;7.70;79.70;;;;;;5018197;28;20041;-75
2020/12/04 02:40:10;;;;;;;5.00;3.10;;;7.60;79.70;;;;;;4981691;28;20026;-75
2020/12/04 02:42:36;;;;;;;3.80;2.78;;;7.60;79.60;;;;;;4997573;28;20041;-75
2020/12/04 02:45:03;;;;;;;4.32;3.05;;;7.70;79.70;;;;;;5013782;28;20430;-80
2020/12/04 02:47:28;;;;;;;4.03;2.88;;;7.60;79.60;;;;;;5013561;28;20038;-76
2020/12/04 02:49:54;;;;;;;4.55;3.10;;;7.60;79.60;;;;;;5014806;28;20488;-75
2020/12/04 02:52:22;;;;;;;5.07;3.42;;;7.70;79.70;;;;;;5014225;28;20041;-75
2020/12/04 02:54:48;;;;;;;4.10;2.67;;;7.60;79.70;;;;;;4998154;28;20116;-75
2020/12/04 02:57:13;;;;;;;4.10;2.83;;;7.60;79.60;;;;;;5014203;28;20185;-75
2020/12/04 02:59:39;;;;;;;4.43;3.00;;;7.60;79.70;;;;;;4997969;28;20359;-75
2020/12/04 03:02:05;;;;;;;4.13;2.85;;;7.60;79.60;;;;;;5013473;28;20525;-75
2020/12/04 03:04:31;;;;;;;4.75;2.90;;;7.60;79.60;;;;;;4990208;28;20054;-75
2020/12/04 03:06:56;;;;;;;4.45;2.97;;;7.60;79.70;;;;;;5012413;28;20092;-77
2020/12/04 03:09:22;;;;;;;4.65;3.03;;;7.60;79.60;;;;;;5007017;28;20125;-75
2020/12/04 03:11:48;;;;;;;3.80;2.67;;;7.60;79.60;;;;;;5002065;28;20019;-75
2020/12/04 03:14:13;;;;;;;4.43;2.92;;;7.60;79.60;;;;;;5012687;28;20034;-75
2020/12/04 03:16:39;;;;;;;4.22;2.80;;;7.60;79.60;;;;;;5012823;28;20029;-75
2020/12/04 03:19:05;;;;;;;4.15;2.90;;;7.60;79.70;;;;;;5021978;28;20439;-76
2020/12/04 03:21:31;;;;;;;3.97;2.70;;;7.60;79.70;;;;;;5005623;28;20033;-76
2020/12/04 03:23:56;;;;;;;4.65;2.97;;;7.60;79.70;;;;;;4997961;28;20050;-75
2020/12/04 03:26:22;;;;;;;4.50;2.80;;;7.60;79.70;;;;;;4997120;28;20117;-75
2020/12/04 03:28:48;;;;;;;4.43;3.25;;;7.60;79.70;;;;;;5013010;28;20466;-76
2020/12/04 03:31:14;;;;;;;4.07;2.85;;;7.60;79.70;;;;;;5029988;28;20057;-75
2020/12/04 03:33:40;;;;;;;3.53;2.53;;;7.60;79.70;;;;;;5029428;28;20125;-75
2020/12/04 03:36:05;;;;;;;4.20;2.90;;;7.60;79.70;;;;;;4997428;28;20036;-76
2020/12/04 03:38:31;;;;;;;4.28;2.90;;;7.60;79.60;;;;;;4997286;28;20022;-76
2020/12/04 03:40:57;;;;;;;4.45;3.08;;;7.60;79.70;;;;;;5014782;28;20030;-75
2020/12/04 03:43:23;;;;;;;3.92;2.60;;;7.60;79.70;;;;;;5013244;28;20034;-75
2020/12/04 03:45:49;;;;;;;3.78;2.53;;;7.60;79.70;;;;;;5013610;28;20034;-75
2020/12/04 03:48:15;;;;;;;3.70;2.70;;;7.60;79.70;;;;;;4980668;28;20389;-76
2020/12/04 03:50:41;;;;;;;4.13;2.80;;;7.60;79.70;;;;;;5014780;28;20026;-75
2020/12/04 03:53:07;;;;;;;3.55;2.50;;;7.60;79.70;;;;;;5013710;28;20045;-75
2020/12/04 03:55:33;;;;;;;4.00;2.80;;;7.60;79.70;;;;;;5019501;28;20077;-75
2020/12/04 03:57:59;;;;;;;4.25;2.83;;;7.60;79.70;;;;;;5014409;28;20753;-75
2020/12/04 04:00:25;;;;;;;4.07;2.60;;;7.60;79.70;;;;;;4996715;28;20124;-75
2020/12/04 04:02:51;;;;;;;3.90;2.47;;;7.60;79.70;;;;;;4996878;28;20038;-75
2020/12/04 04:05:17;;;;;;;3.80;2.63;;;7.60;79.70;;;;;;5013959;28;20034;-75
2020/12/04 04:07:43;;;;;;;4.15;2.70;;;7.60;79.70;;;;;;5020386;28;20030;-75
2020/12/04 04:10:09;;;;;;;3.78;2.60;;;7.60;79.70;;;;;;4980217;28;20037;-75
2020/12/04 04:12:34;;;;;;;3.90;2.75;;;7.60;79.70;;;;;;5013936;28;20096;-75
2020/12/04 04:15:00;;;;;;;3.78;2.75;;;7.60;79.70;;;;;;4996563;28;20109;-75
2020/12/04 04:17:26;;;;;;;3.80;2.53;;;7.60;79.70;;;;;;4996335;28;20204;-76
2020/12/04 04:19:52;;;;;;;4.00;2.72;;;7.60;79.70;;;;;;5012989;28;20439;-75
2020/12/04 04:22:18;;;;;;;3.63;2.63;;;7.60;79.70;;;;;;5013720;28;20036;-75
2020/12/04 04:24:43;;;;;;;4.00;2.70;;;7.60;79.70;;;;;;4995486;28;20042;-75
2020/12/04 04:27:10;;;;;;;3.50;2.50;;;7.60;79.70;;;;;;5019544;28;20050;-75
2020/12/04 04:29:36;;;;;;;4.07;2.63;;;7.60;79.70;;;;;;5012892;28;20018;-75
2020/12/04 04:32:01;;;;;;;4.60;2.45;;;7.60;79.70;;;;;;5016653;28;20038;-75
2020/12/04 04:34:27;;;;;;;4.43;2.55;;;7.60;79.70;;;;;;5011538;28;20065;-75
2020/12/04 04:36:53;;;;;;;3.22;2.28;;;7.60;79.70;;;;;;4995512;28;20032;-75
2020/12/04 04:39:19;;;;;;;3.90;2.45;;;7.60;79.70;;;;;;5013467;28;20100;-76
2020/12/04 04:41:44;;;;;;;3.65;2.42;;;7.60;79.70;;;;;;5010623;28;20038;-76
2020/12/04 04:44:12;;;;;;;3.70;2.33;;;7.60;79.70;;;;;;5012442;28;20109;-75
2020/12/04 04:46:50;;;;;;;3.47;2.42;;;7.60;79.70;;;;;;5012165;28;20029;-75
2020/12/04 04:49:28;;;;;;;3.15;2.30;;;7.60;79.70;;;;;;5012206;28;20690;-75
2020/12/04 04:51:56;;;;;;;3.72;2.67;;;7.60;79.70;;;;;;5013103;28;20037;-76
2020/12/04 04:54:25;;;;;;;3.28;2.38;;;7.60;79.70;;;;;;5012292;28;20094;-75
2020/12/04 04:56:52;;;;;;;3.70;2.40;;;7.60;79.70;;;;;;5036421;28;20046;-77
2020/12/04 04:59:22;;;;;;;3.08;2.30;;;7.60;79.70;;;;;;4995140;28;20473;-75
2020/12/04 05:01:49;;;;;;;3.03;2.22;;;7.60;79.70;;;;;;5013272;28;20116;-75
2020/12/04 05:04:16;;;;;;;3.17;2.15;;;7.60;79.70;;;;;;5027842;28;20030;-75
2020/12/04 05:06:43;;;;;;;3.63;2.33;;;7.60;79.70;;;;;;5016023;28;20038;-75
2020/12/04 05:09:36;;;;;;;3.50;2.47;;;7.60;79.70;;;;;;4999524;28;20029;-75
2020/12/04 05:12:02;;;;;;;3.40;2.45;;;7.60;79.80;;;;;;5007833;28;20129;-77
2020/12/04 05:14:28;;;;;;;3.60;2.45;;;7.60;79.70;;;;;;5011619;28;20033;-75
2020/12/04 05:16:56;;;;;;;3.28;2.33;;;7.60;79.80;;;;;;5011295;28;20034;-75
2020/12/04 05:19:32;;;;;;;2.85;2.20;;;7.60;79.70;;;;;;5010059;28;20088;-75
2020/12/04 05:22:14;;;;;;;3.20;2.20;;;7.60;79.80;;;;;;5011142;28;20022;-75
2020/12/04 05:24:41;;;;;;;2.78;2.17;;;7.60;79.80;;;;;;5011169;28;20113;-75
2020/12/04 05:27:27;;;;;;;3.55;2.42;;;7.60;79.70;;;;;;4977172;28;20018;-75
2020/12/04 05:29:57;;;;;;;2.97;2.10;;;7.60;79.80;;;;;;5011668;28;20036;-75
2020/12/04 05:32:24;;;;;;;2.83;2.20;;;7.60;79.70;;;;;;5010938;28;20037;-75
2020/12/04 05:34:51;;;;;;;3.40;2.28;;;7.60;79.70;;;;;;5005849;28;20080;-74
2020/12/04 05:37:19;;;;;;;2.28;1.85;;;7.60;79.70;;;;;;5010902;28;20030;-76
2020/12/04 05:39:47;;;;;;;2.65;2.10;;;7.60;79.70;;;;;;5010164;28;20057;-76
2020/12/04 05:42:28;;;;;;;2.83;1.98;;;7.60;79.80;;;;;;4993788;28;20029;-76
2020/12/04 05:44:54;;;;;;;3.13;2.13;;;7.60;79.80;;;;;;5015809;28;20056;-75
2020/12/04 05:47:33;;;;;;;3.22;2.10;;;7.60;79.70;;;;;;5010804;28;20061;-75
2020/12/04 05:49:59;;;;;;;3.60;2.35;;;7.60;79.70;;;;;;5019829;28;20117;-75
2020/12/04 05:52:25;;;;;;;3.15;2.20;;;7.60;79.70;;;;;;5012959;28;20045;-76
2020/12/04 05:54:51;;;;;;;2.92;2.28;;;7.60;79.70;;;;;;5013969;28;20037;-75
2020/12/04 05:57:20;;;;;;;2.80;1.88;;;7.60;79.70;;;;;;4998029;28;20049;-77
2020/12/04 05:59:46;;;;;;;2.97;2.10;;;7.60;79.80;;;;;;5016484;28;20466;-75
2020/12/04 06:02:14;;;;;;;3.25;2.00;;;7.60;79.70;;;;;;4998166;28;20037;-76
2020/12/04 06:04:41;;;;;;;3.15;2.30;;;7.60;79.70;;;;;;5016490;28;20105;-78
2020/12/04 06:07:11;;;;;;;3.50;2.10;;;7.60;79.70;;;;;;5014874;28;20068;-75
2020/12/04 06:09:36;;;;;;;2.40;1.95;;;7.60;79.70;;;;;;4998234;28;20022;-75
2020/12/04 06:12:11;;;;;;;3.40;1.95;;;7.60;79.70;;;;;;5015217;28;20132;-75
2020/12/04 06:14:37;;;;;;;3.00;2.25;;;7.60;79.70;;;;;;5015055;28;20034;-75
2020/12/04 06:17:02;;;;;;;3.13;2.25;;;7.60;79.70;;;;;;4998557;28;20032;-76
2020/12/04 06:19:37;;;;;;;3.00;1.90;;;7.60;79.70;;;;;;5014436;28;20108;-75
2020/12/04 06:22:13;;;;;;;2.13;1.92;;;7.60;79.70;;;;;;5014334;28;20045;-75
2020/12/04 06:24:54;;;;;;;2.42;1.90;;;7.60;79.70;;;;;;5028774;28;20026;-75
2020/12/04 06:27:45;;;;;;;3.17;2.03;;;7.60;79.70;;;;;;5010686;28;20018;-75
2020/12/04 06:30:16;;;;;;;2.47;2.10;;;7.60;79.70;;;;;;5015748;28;20030;-77
2020/12/04 06:32:45;;;;;;;2.10;1.80;;;7.60;79.70;;;;;;5014251;28;20470;-75
2020/12/04 06:35:12;;;;;;;2.88;2.13;;;7.60;79.70;;;;;;5020903;28;20067;-75
2020/12/04 06:37:43;;;;;;;2.30;1.88;;;7.60;79.70;;;;;;5022146;28;20034;-76
2020/12/04 06:40:30;;;;;;;2.63;2.00;;;7.60;79.70;;;;;;5020834;28;20029;-74
2020/12/04 06:43:01;;;;;;;2.55;2.00;;;7.60;79.70;;;;;;5014515;28;20038;-76
2020/12/04 06:45:46;;;;;;;2.72;2.03;;;7.50;79.60;;;;;;4997774;28;20033;-75
2020/12/04 06:48:17;;;;;;;2.75;2.08;;;7.60;79.70;;;;;;4992049;28;20913;-75
2020/12/04 06:50:48;;;;;;;2.55;1.85;;;7.60;79.70;;;;;;5012966;28;20038;-76
2020/12/04 06:53:15;;;;;;;2.50;1.83;;;7.60;79.70;;;;;;5006985;28;20072;-75
2020/12/04 06:55:42;;;;;;;2.58;2.00;;;7.60;79.70;;;;;;5030698;28;20030;-74
2020/12/04 06:58:09;;;;;;;2.38;1.90;;;7.60;79.70;;;;;;5006197;28;20062;-75
2020/12/04 07:00:35;;;;;;;2.20;1.75;;;7.50;79.60;;;;;;4997855;28;20053;-76
2020/12/04 07:03:03;;;;;;;2.45;1.77;;;7.60;79.70;;;;;;4996933;28;20401;-75
2020/12/04 07:05:30;;;;;;;2.90;2.10;;;7.60;79.70;;;;;;5012806;28;20478;-76
2020/12/04 07:08:05;;;;;;;2.70;1.98;;;7.60;79.70;;;;;;5014136;28;20062;-75
2020/12/04 07:10:32;;;;;;;2.47;1.90;;;7.60;79.70;;;;;;5014383;28;20061;-76
2020/12/04 07:13:00;;;;;;;2.60;1.88;;;7.60;79.70;;;;;;5013654;28;20033;-75
2020/12/04 07:15:27;;;;;;;2.92;2.15;;;7.60;79.70;;;;;;4997992;28;20053;-75
2020/12/04 07:17:54;;;;;;;2.17;1.85;;;7.60;79.70;;;;;;4998224;28;20385;-75
2020/12/04 07:20:20;;;;;;;2.95;1.75;;;7.60;79.70;;;;;;5004403;28;20045;-76
2020/12/04 07:22:46;;;;;;;2.45;1.90;;;7.60;79.60;;;;;;4997249;28;20038;-76
2020/12/04 07:25:11;;;;;;;2.72;1.95;;;7.60;79.60;;;;;;5013661;28;20037;-75
2020/12/04 07:27:38;;;;;;;1.90;1.63;;;7.60;79.70;;;;;;5013491;28;20087;-76
2020/12/04 07:30:17;;;;;;;2.67;1.90;;;7.60;79.70;;;;;;5014070;28;20025;-81
2020/12/04 07:32:54;;;;;;;2.20;1.70;;;7.60;79.70;;;;;;4997853;28;20088;-76
2020/12/04 07:35:22;;;;;;;2.15;1.70;;;7.60;79.70;;;;;;5014382;28;20022;-75
2020/12/04 07:37:47;;;;;;;2.70;1.75;;;7.60;79.60;;;;;;5013011;28;20083;-75
2020/12/04 07:40:15;;;;;;;2.53;1.77;;;7.60;79.70;;;;;;5012708;28;20129;-78
2020/12/04 07:42:41;;;;;;;2.33;1.80;;;7.60;79.70;;;;;;5013255;28;20038;-75
2020/12/04 07:45:12;;;;;;;2.00;1.70;;;7.60;79.70;;;;;;5014145;28;20037;-76
2020/12/04 07:47:42;;;;;;;2.00;1.63;;;7.60;79.70;;;;;;5013779;28;20030;-76
2020/12/04 07:50:10;;;;;;;1.88;1.60;;;7.70;79.80;;;;;;4980499;28;20124;-75
2020/12/04 07:52:36;;;;;;;2.10;1.70;;;7.70;79.70;;;;;;5006542;28;20033;-75
2020/12/04 07:55:07;;;;;;;1.55;1.45;;;7.60;79.60;;;;;;4995400;28;20034;-75
2020/12/04 07:57:42;;;;;;;2.15;1.60;;;7.70;79.70;;;;;;5011277;28;20049;-75
2020/12/04 08:00:08;;;;;;;3.08;1.88;;;7.70;79.80;;;;;;5014544;28;20033;-76
2020/12/04 08:02:37;;;;;;;1.92;1.60;;;7.70;79.70;;;;;;5015420;28;20040;-77
2020/12/04 08:05:03;;;;;;;2.30;1.63;;;7.70;79.70;;;;;;5000020;28;20038;-76
2020/12/04 08:07:31;;;;;;;2.25;1.80;;;7.70;79.70;;;;;;5013981;28;20023;-76
2020/12/04 08:09:59;;;;;;;1.98;1.60;;;7.70;79.70;;;;;;5014162;28;20068;-78
2020/12/04 08:12:34;;;;;;;2.28;1.60;;;7.70;79.70;;;;;;5014584;28;20038;-77
2020/12/04 08:15:03;;;;;;;1.58;1.40;;;7.70;79.70;;;;;;5014681;28;20061;-77
2020/12/04 08:17:31;;;;;;;1.73;1.60;;;7.70;79.70;;;;;;5018024;28;20105;-78
2020/12/04 08:20:00;;;;;;;1.75;1.50;;;7.70;79.70;;;;;;5011475;28;20033;-76
2020/12/04 08:22:28;;;;;;;1.50;1.40;;;7.70;79.70;;;;;;5011471;28;20124;-78
2020/12/04 08:25:06;;;;;;;2.13;1.73;;;7.70;79.70;;;;;;5016341;28;20039;-76
2020/12/04 08:27:41;;;;;;;2.05;1.50;;;7.80;79.80;;;;;;5008843;28;20084;-77
2020/12/04 08:30:39;;;;;;;2.35;1.60;;;7.80;79.80;;;;;;5008719;28;20092;-76
2020/12/04 08:33:06;;;;;;;1.48;1.33;;;7.70;79.70;;;;;;5000488;28;20142;-81
2020/12/04 08:35:40;;;;;;;1.75;1.38;;;7.80;79.70;;;;;;5011689;28;20030;-76
2020/12/04 08:38:12;;;;;;;2.22;1.58;;;7.80;79.70;;;;;;5011785;28;20032;-76
2020/12/04 08:40:41;;;;;;;1.40;1.30;;;7.80;79.70;;;;;;4994474;28;20547;-77
2020/12/04 08:43:15;;;;;;;1.90;1.50;;;7.80;79.70;;;;;;4995540;28;20045;-77
2020/12/04 08:45:49;;;;;;;2.25;1.58;;;7.80;79.70;;;;;;5004618;28;20030;-76
2020/12/04 08:48:20;;;;;;;1.85;1.40;;;7.80;79.70;;;;;;5009880;28;20034;-77
2020/12/04 08:50:51;;;;;;;1.40;1.30;;;7.80;79.70;;;;;;5011663;28;20033;-76
2020/12/04 08:53:18;;;;;;;1.85;1.55;;;7.80;79.70;;;;;;5011279;28;20037;-76
2020/12/04 08:55:47;;;;;;;1.75;1.30;;;7.80;79.80;;;;;;4998944;28;20381;-76
2020/12/04 08:58:14;;;;;;;1.77;1.50;;;7.90;79.80;;;;;;5011666;28;20156;-78
2020/12/04 09:00:41;;;;;;;1.98;1.60;;;7.90;79.90;;;;;;5004305;28;20037;-76
2020/12/04 09:03:07;;;;;;;1.67;1.50;;;7.90;79.80;;;;;;5011982;28;20030;-76
2020/12/04 09:05:32;;;;;;;2.35;1.70;;;7.90;79.80;;;;;;5002426;28;20080;-76
2020/12/04 09:07:58;;;;;;;1.67;1.50;;;7.90;79.70;;;;;;5011628;28;20355;-76
2020/12/04 09:10:24;;;;;;;1.88;1.50;;;7.90;79.70;;;;;;5011451;28;20132;-77
2020/12/04 09:12:50;;;;;;;1.63;1.52;;;7.90;79.70;;;;;;5006712;28;20033;-77
2020/12/04 09:15:19;;;;;;;1.20;1.10;;;7.90;79.70;;;;;;5011191;28;20037;-76
2020/12/04 09:17:45;;;;;;;1.73;1.50;;;7.90;79.70;;;;;;4995286;28;20038;-76
2020/12/04 09:20:13;;;;;;;1.80;1.55;;;8.00;79.70;;;;;;5011366;28;20026;-79
2020/12/04 09:22:39;;;;;;;1.73;1.40;;;8.00;79.70;;;;;;4995555;28;20385;-78
2020/12/04 09:25:10;;;;;;;1.67;1.35;;;8.00;79.70;;;;;;4975894;28;20030;-85
2020/12/04 09:27:36;;;;;;;1.52;1.42;;;8.00;79.70;;;;;;4995165;28;20117;-77
2020/12/04 09:30:10;;;;;;;1.73;1.40;;;8.00;79.70;;;;;;4994782;28;20034;-76
2020/12/04 09:32:37;;;;;;;2.35;1.50;;;8.00;79.70;;;;;;5010854;28;20088;-76
2020/12/04 09:35:04;;;;;;;1.40;1.30;;;8.00;79.70;;;;;;4994537;28;20022;-76
2020/12/04 09:37:31;;;;;;;1.50;1.30;;;8.10;79.80;;;;;;5011189;28;20057;-80
2020/12/04 09:40:00;;;;;;;1.63;1.38;;;8.00;79.70;;;;;;5030525;28;20032;-78
2020/12/04 09:42:27;;;;;;;1.75;1.30;;;8.00;79.70;;;;;;5012753;28;20037;-78
2020/12/04 09:44:54;;;;;;;1.60;1.33;;;8.00;79.80;;;;;;5010500;28;20543;-77
2020/12/04 09:47:20;;;;;;;1.90;1.50;;;8.00;79.80;;;;;;4990541;28;20038;-77
2020/12/04 09:49:47;;;;;;;1.50;1.20;;;8.10;79.80;;;;;;4994444;28;20616;-76
2020/12/04 09:52:14;;;;;;;1.42;1.33;;;8.10;79.80;;;;;;5027395;28;20071;-77
2020/12/04 09:54:41;;;;;;;1.30;1.20;;;8.10;79.80;;;;;;5012099;28;20479;-76
2020/12/04 09:57:09;;;;;;;1.50;1.40;;;8.10;79.80;;;;;;4994978;28;20046;-76
2020/12/04 09:59:36;;;;;;;1.30;1.20;;;8.10;79.80;;;;;;4995199;28;20466;-77
2020/12/04 10:02:03;;;;;;;1.48;1.30;;;8.10;79.80;;;;;;5011397;28;20389;-76
2020/12/04 10:04:29;;;;;;;1.30;1.20;;;8.10;79.80;;;;;;4994394;28;20026;-76
2020/12/04 10:06:55;;;;;;;1.30;1.20;;;8.10;79.80;;;;;;5012388;28;20033;-76
2020/12/04 10:09:22;;;;;;;1.60;1.20;;;8.20;79.80;;;;;;4978744;28;20026;-76
2020/12/04 10:11:49;;;;;;;1.42;1.20;;;8.20;79.80;;;;;;5011345;28;20050;-77
2020/12/04 10:14:15;;;;;;;1.27;1.17;;;8.20;79.80;;;;;;5001481;28;20104;-76
2020/12/04 10:16:42;;;;;;;1.30;1.20;;;8.20;79.80;;;;;;5012363;28;20022;-76
2020/12/04 10:19:09;;;;;;;1.17;1.08;;;8.20;79.80;;;;;;4994560;28;20033;-77
2020/12/04 10:21:36;;;;;;;1.00;1.00;;;8.30;79.80;;;;;;4994924;28;20080;-79
2020/12/04 10:24:04;;;;;;;1.15;1.10;;;8.30;79.80;;;;;;5027888;28;20512;-76
2020/12/04 10:26:29;;;;;;;1.20;1.05;;;8.30;79.80;;;;;;5011792;28;20421;-75
2020/12/04 10:28:55;;;;;;;1.13;1.05;;;8.30;79.80;;;;;;5010886;28;20038;-76
2020/12/04 10:31:22;;;;;;;1.10;1.10;;;8.40;79.80;;;;;;4993576;28;20474;-76
2020/12/04 10:33:48;;;;;;;1.38;1.10;;;8.40;79.80;;;;;;5010897;28;20033;-78
2020/12/04 10:36:14;;;;;;;1.45;1.00;;;8.40;79.80;;;;;;4978395;28;20470;-82
2020/12/04 10:38:41;;;;;;;1.00;1.00;;;8.40;79.80;;;;;;5013020;28;20038;-77
2020/12/04 10:41:08;;;;;;;1.35;1.00;;;8.40;79.80;;;;;;4997966;28;20478;-76
2020/12/04 10:43:34;;;;;;;0.85;0.80;;;8.40;79.80;;;;;;5015689;28;20030;-77
2020/12/04 10:46:00;;;;;;;0.90;0.90;;;8.50;79.70;;;;;;5014865;28;20101;-75
2020/12/04 10:48:26;;;;;;;0.90;0.90;;;8.40;79.70;;;;;;5015397;28;20117;-76
2020/12/04 10:50:52;;;;;;;0.90;0.90;;;8.50;79.70;;;;;;4998488;28;20034;-77
2020/12/04 10:53:22;;;;;;;0.88;0.88;;;8.50;79.70;;;;;;4981153;28;20375;-76
2020/12/04 10:55:50;;;;;;;1.00;1.00;;;8.50;79.70;;;;;;5014961;28;20613;-79
2020/12/04 10:58:16;;;;;;;1.30;0.98;;;8.50;79.70;;;;;;4997404;28;20054;-77
2020/12/04 11:00:47;;;;;;;0.82;0.82;;;8.50;79.70;;;;;;4998577;28;20034;-76
2020/12/04 11:06:06;;;;;;;1.00;1.00;;;8.60;79.70;;;;;;4985879;28;20490;-76
2020/12/04 11:08:32;;;;;;;0.80;0.80;;;8.60;79.70;;;;;;5013915;28;20057;-77
2020/12/04 11:10:58;;;;;;;0.80;0.80;;;8.60;79.70;;;;;;4980750;28;20581;-76
2020/12/04 11:13:23;;;;;;;0.85;0.85;;;8.60;79.70;;;;;;4996833;28;20041;-78
2020/12/04 11:15:49;;;;;;;1.08;0.98;;;8.60;79.70;;;;;;5014108;28;20030;-77
2020/12/04 11:18:16;;;;;;;0.98;0.95;;;8.60;79.70;;;;;;5017959;28;20029;-76
2020/12/04 11:20:42;;;;;;;0.93;0.93;;;8.70;79.80;;;;;;5016592;28;20466;-76
2020/12/04 11:23:08;;;;;;;0.80;0.80;;;8.70;79.70;;;;;;5013331;28;20037;-77
2020/12/04 11:25:34;;;;;;;0.70;0.70;;;8.70;79.70;;;;;;4997680;28;20462;-78
2020/12/04 11:28:00;;;;;;;0.80;0.80;;;8.70;79.70;;;;;;4997177;28;20030;-77
2020/12/04 11:30:25;;;;;;;0.70;0.70;;;8.70;79.70;;;;;;5012928;28;20071;-76
2020/12/04 11:32:51;;;;;;;0.70;0.70;;;8.80;79.80;;;;;;5012856;28;20476;-77
2020/12/04 11:35:18;;;;;;;0.85;0.85;;;8.80;79.70;;;;;;5012467;28;20450;-77
2020/12/04 11:37:48;;;;;;;0.70;0.70;;;8.80;79.70;;;;;;5013111;28;20057;-77
2020/12/04 11:40:16;;;;;;;0.80;0.80;;;8.80;79.70;;;;;;5012546;28;20034;-77
2020/12/04 11:42:43;;;;;;;0.80;0.80;;;8.90;79.70;;;;;;5013481;28;20038;-77
2020/12/04 11:45:11;;;;;;;0.80;0.80;;;8.90;79.60;;;;;;5012545;28;20033;-78
2020/12/04 11:47:38;;;;;;;0.80;0.80;;;8.90;79.60;;;;;;5013508;28;20132;-77
2020/12/04 11:50:09;;;;;;;0.80;0.80;;;8.90;79.60;;;;;;5011718;28;20030;-79
2020/12/04 11:52:35;;;;;;;0.80;0.80;;;8.90;79.50;;;;;;5013936;28;20071;-77
2020/12/04 11:55:02;;;;;;;0.80;0.80;;;9.00;79.60;;;;;;5012220;28;20121;-78
2020/12/04 11:57:28;;;;;;;0.75;0.75;;;8.90;79.50;;;;;;5012869;28;20057;-77
2020/12/04 11:59:53;;;;;;;0.80;0.80;;;9.00;79.50;;;;;;4996352;28;20556;-77
2020/12/04 12:02:19;;;;;;;0.70;0.70;;;9.00;79.50;;;;;;5014907;28;20065;-76
2020/12/04 12:04:45;;;;;;;0.77;0.77;;;9.00;79.50;;;;;;5013538;28;20061;-76
2020/12/04 12:07:11;;;;;;;0.88;0.88;;;9.00;79.40;;;;;;5012830;28;20022;-77
2020/12/04 12:09:36;;;;;;;1.35;0.75;;;9.10;79.50;;;;;;4995561;28;20532;-77
2020/12/04 12:12:03;;;;;;;0.77;0.77;;;9.10;79.40;;;;;;5013426;28;20030;-77
2020/12/04 12:14:29;;;;;;;0.90;0.90;;;9.10;79.40;;;;;;4981077;28;20029;-76
2020/12/04 12:16:55;;;;;;;1.25;0.90;;;9.10;79.40;;;;;;5035448;28;20029;-76
2020/12/04 12:19:20;;;;;;;0.70;0.70;;;9.20;79.40;;;;;;4999152;28;20033;-77
2020/12/04 12:21:48;;;;;;;0.85;0.85;;;9.20;79.40;;;;;;5012721;28;20030;-77
2020/12/04 12:24:15;;;;;;;0.75;0.75;;;9.20;79.40;;;;;;4996434;28;20026;-77
2020/12/04 12:26:41;;;;;;;0.77;0.77;;;9.20;79.40;;;;;;5013001;28;20034;-77
2020/12/04 12:29:07;;;;;;;0.80;0.80;;;9.30;79.40;;;;;;5013887;28;20113;-77
2020/12/04 12:31:33;;;;;;;0.75;0.75;;;9.30;79.40;;;;;;4980110;28;20393;-77
2020/12/04 12:33:59;;;;;;;0.80;0.80;;;9.30;79.40;;;;;;5013622;28;20121;-77
2020/12/04 12:36:25;;;;;;;0.80;0.80;;;9.30;79.40;;;;;;5012360;28;20040;-76
2020/12/04 12:38:53;;;;;;;1.42;0.90;;;9.30;79.40;;;;;;5013090;28;20041;-76
2020/12/04 12:41:19;;;;;;;0.70;0.70;;;9.40;79.40;;;;;;5013489;28;20026;-76
2020/12/04 12:43:46;;;;;;;0.80;0.80;;;9.40;79.30;;;;;;4996139;28;20038;-76
2020/12/04 12:46:12;;;;;;;0.70;0.70;;;9.40;79.30;;;;;;5028087;28;20050;-76
2020/12/04 12:48:37;;;;;;;0.80;0.80;;;9.40;79.30;;;;;;5028255;28;20474;-77
2020/12/04 12:51:03;;;;;;;0.80;0.80;;;9.40;79.30;;;;;;5013062;28;20068;-77
2020/12/04 12:53:29;;;;;;;1.42;0.73;;;9.50;79.30;;;;;;5013252;28;20037;-76
2020/12/04 12:55:54;;;;;;;1.20;0.80;;;9.50;79.20;;;;;;5013950;28;20402;-76
2020/12/04 12:58:20;;;;;;;0.80;0.80;;;9.50;79.20;;;;;;4995668;28;20038;-76
2020/12/04 13:00:46;;;;;;;0.80;0.80;;;9.50;79.20;;;;;;5011799;28;20492;-77
2020/12/04 13:03:12;;;;;;;0.70;0.70;;;9.60;79.20;;;;;;5011407;28;20593;-76